Country
Station

 

Weather  for  Wagga Airport  -  Australia    Australia

  
27 °C (81 °F)
    
 
 

Current METAR for Wagga Airport is :

YSWG 211800Z AUTO 10008KT 9999 // NCD 27/05 Q1006

 

This is a report for Wagga Airport - Australia.
 
The report was made 8 minutes ago, at 18:00 UTC .
The wind was blowing at a speed of 4.1 meters per second (9.2 miles per hour) from east (100°).
 
The temperature was 27 °C (81 °F), with a dew-point at 5 °C (41 °F).
The temperature felt like 26 °C (79 °F).
 
The atmospheric pressure was 1006 hPa (29.71 inHg).
The relative humidity was 24.5%.
 
The overall visibility was greater than 10 kilometers (6.2 miles).
 

 
 
 
 

Country :   A   B   C   D   E   F   G   H   I   J   K   L   M   N   O   P   Q   R   S   T   U   V   W   Y   Z

 

Site Info  |  Disclaimer  |  Credits  |  Privacy
Contact us  |  Add to favorites
© 2013-2018 METARs - All rights reserved